sensor_id;sensor_type;location;lat;lon;timestamp;temperature;humidity
22996;DHT22;11664;49.774;8.650;2023-01-13T00:01:04;10.00;99.90
22996;DHT22;11664;49.774;8.650;2023-01-13T00:06:27;10.00;99.90
22996;DHT22;11664;49.774;8.650;2023-01-13T00:08:53;10.00;99.90
22996;DHT22;11664;49.774;8.650;2023-01-13T00:11:20;10.00;99.90
22996;DHT22;11664;49.774;8.650;2023-01-13T00:16:14;10.10;99.90
22996;DHT22;11664;49.774;8.650;2023-01-13T00:21:19;10.10;99.90
22996;DHT22;11664;49.774;8.650;2023-01-13T00:23:46;10.10;99.90
22996;DHT22;11664;49.774;8.650;2023-01-13T00:26:18;10.10;99.90
22996;DHT22;11664;49.774;8.650;2023-01-13T00:28:43;10.20;99.90
22996;DHT22;11664;49.774;8.650;2023-01-13T00:38:31;10.20;99.90
22996;DHT22;11664;49.774;8.650;2023-01-13T00:40:58;10.30;99.90
22996;DHT22;11664;49.774;8.650;2023-01-13T00:48:19;10.30;99.90
22996;DHT22;11664;49.774;8.650;2023-01-13T00:50:45;10.30;99.90
22996;DHT22;11664;49.774;8.650;2023-01-13T00:55:39;10.30;99.90
22996;DHT22;11664;49.774;8.650;2023-01-13T01:05:23;10.40;99.90
22996;DHT22;11664;49.774;8.650;2023-01-13T01:10:15;10.40;99.90
22996;DHT22;11664;49.774;8.650;2023-01-13T01:15:07;10.40;99.90
22996;DHT22;11664;49.774;8.650;2023-01-13T01:17:35;10.40;99.90
22996;DHT22;11664;49.774;8.650;2023-01-13T01:20:02;10.40;99.90
22996;DHT22;11664;49.774;8.650;2023-01-13T01:24:54;10.40;99.90
22996;DHT22;11664;49.774;8.650;2023-01-13T01:32:12;10.40;99.90
22996;DHT22;11664;49.774;8.650;2023-01-13T01:39:30;10.40;99.90
22996;DHT22;11664;49.774;8.650;2023-01-13T01:47:30;10.40;99.90
22996;DHT22;11664;49.774;8.650;2023-01-13T01:49:57;10.50;99.90
22996;DHT22;11664;49.774;8.650;2023-01-13T01:57:35;10.50;99.90
22996;DHT22;11664;49.774;8.650;2023-01-13T02:00:03;10.50;99.90
22996;DHT22;11664;49.774;8.650;2023-01-13T02:04:55;10.50;99.90
22996;DHT22;11664;49.774;8.650;2023-01-13T02:09:57;10.40;99.90
22996;DHT22;11664;49.774;8.650;2023-01-13T02:15:05;10.50;99.90
22996;DHT22;11664;49.774;8.650;2023-01-13T02:30:44;10.40;99.90
22996;DHT22;11664;49.774;8.650;2023-01-13T02:36:26;10.40;99.90
22996;DHT22;11664;49.774;8.650;2023-01-13T02:38:59;10.40;99.90
22996;DHT22;11664;49.774;8.650;2023-01-13T02:44:19;10.40;99.90
22996;DHT22;11664;49.774;8.650;2023-01-13T02:51:54;10.40;99.90
22996;DHT22;11664;49.774;8.650;2023-01-13T02:56:49;10.40;99.90
22996;DHT22;11664;49.774;8.650;2023-01-13T02:59:18;10.40;99.90
22996;DHT22;11664;49.774;8.650;2023-01-13T03:06:46;10.40;99.90
22996;DHT22;11664;49.774;8.650;2023-01-13T03:12:02;10.40;99.90
22996;DHT22;11664;49.774;8.650;2023-01-13T03:14:43;10.40;99.90
22996;DHT22;11664;49.774;8.650;2023-01-13T03:17:26;10.40;99.90
22996;DHT22;11664;49.774;8.650;2023-01-13T03:22:32;10.40;99.90
22996;DHT22;11664;49.774;8.650;2023-01-13T03:25:14;10.40;99.90
22996;DHT22;11664;49.774;8.650;2023-01-13T04:15:38;10.50;99.90
22996;DHT22;11664;49.774;8.650;2023-01-13T04:18:26;10.50;99.90
22996;DHT22;11664;49.774;8.650;2023-01-13T04:23:20;10.60;99.90
22996;DHT22;11664;49.774;8.650;2023-01-13T04:25:47;10.60;99.90
22996;DHT22;11664;49.774;8.650;2023-01-13T04:28:13;10.60;99.90
22996;DHT22;11664;49.774;8.650;2023-01-13T05:04:52;10.70;99.90
22996;DHT22;11664;49.774;8.650;2023-01-13T05:09:44;10.70;99.90
22996;DHT22;11664;49.774;8.650;2023-01-13T05:12:10;10.70;99.90
22996;DHT22;11664;49.774;8.650;2023-01-13T05:14:54;10.70;99.90
22996;DHT22;11664;49.774;8.650;2023-01-13T05:27:52;10.70;99.90
22996;DHT22;11664;49.774;8.650;2023-01-13T05:30:20;10.70;99.90
22996;DHT22;11664;49.774;8.650;2023-01-13T05:35:11;10.60;99.90
22996;DHT22;11664;49.774;8.650;2023-01-13T05:48:10;10.20;99.90
22996;DHT22;11664;49.774;8.650;2023-01-13T05:55:27;10.00;99.90
22996;DHT22;11664;49.774;8.650;2023-01-13T05:57:53;10.00;99.90
22996;DHT22;11664;49.774;8.650;2023-01-13T06:00:19;10.00;99.90
22996;DHT22;11664;49.774;8.650;2023-01-13T06:10:02;9.80;99.90
22996;DHT22;11664;49.774;8.650;2023-01-13T06:29:31;8.60;99.90
22996;DHT22;11664;49.774;8.650;2023-01-13T06:36:51;8.40;99.90
22996;DHT22;11664;49.774;8.650;2023-01-13T06:51:49;8.40;99.90
22996;DHT22;11664;49.774;8.650;2023-01-13T06:54:15;8.30;99.90
22996;DHT22;11664;49.774;8.650;2023-01-13T06:56:40;8.30;99.90
22996;DHT22;11664;49.774;8.650;2023-01-13T07:01:32;8.30;99.90
22996;DHT22;11664;49.774;8.650;2023-01-13T07:03:57;8.30;99.90
22996;DHT22;11664;49.774;8.650;2023-01-13T07:18:52;8.20;99.90
22996;DHT22;11664;49.774;8.650;2023-01-13T07:21:18;8.20;99.90
22996;DHT22;11664;49.774;8.650;2023-01-13T07:23:45;8.20;99.90
22996;DHT22;11664;49.774;8.650;2023-01-13T07:28:38;8.30;99.90
22996;DHT22;11664;49.774;8.650;2023-01-13T07:31:05;8.30;99.90
22996;DHT22;11664;49.774;8.650;2023-01-13T07:33:36;8.30;99.90
22996;DHT22;11664;49.774;8.650;2023-01-13T07:36:03;8.30;99.90
22996;DHT22;11664;49.774;8.650;2023-01-13T07:38:30;8.30;99.90
22996;DHT22;11664;49.774;8.650;2023-01-13T07:43:22;8.30;99.90
22996;DHT22;11664;49.774;8.650;2023-01-13T07:45:58;8.30;99.90
22996;DHT22;11664;49.774;8.650;2023-01-13T07:48:24;8.30;99.90
22996;DHT22;11664;49.774;8.650;2023-01-13T07:50:50;8.30;99.90
22996;DHT22;11664;49.774;8.650;2023-01-13T07:53:15;8.30;99.90
22996;DHT22;11664;49.774;8.650;2023-01-13T07:58:08;8.30;99.90
22996;DHT22;11664;49.774;8.650;2023-01-13T08:03:00;8.30;99.90
22996;DHT22;11664;49.774;8.650;2023-01-13T08:05:26;8.30;99.90
22996;DHT22;11664;49.774;8.650;2023-01-13T08:07:51;8.30;99.90
22996;DHT22;11664;49.774;8.650;2023-01-13T08:10:17;8.30;99.90
22996;DHT22;11664;49.774;8.650;2023-01-13T08:12:42;8.30;99.90
22996;DHT22;11664;49.774;8.650;2023-01-13T08:15:26;8.30;99.90
22996;DHT22;11664;49.774;8.650;2023-01-13T08:17:54;8.30;99.90
22996;DHT22;11664;49.774;8.650;2023-01-13T08:20:20;8.30;99.90
22996;DHT22;11664;49.774;8.650;2023-01-13T08:22:45;8.20;99.90
22996;DHT22;11664;49.774;8.650;2023-01-13T08:25:11;8.10;99.90
22996;DHT22;11664;49.774;8.650;2023-01-13T08:27:37;8.10;99.90
22996;DHT22;11664;49.774;8.650;2023-01-13T08:30:03;8.20;99.90
22996;DHT22;11664;49.774;8.650;2023-01-13T08:32:29;8.20;99.90
22996;DHT22;11664;49.774;8.650;2023-01-13T08:37:21;8.30;99.90
22996;DHT22;11664;49.774;8.650;2023-01-13T08:39:47;8.30;99.90
22996;DHT22;11664;49.774;8.650;2023-01-13T08:42:13;8.40;99.90
22996;DHT22;11664;49.774;8.650;2023-01-13T08:44:38;8.40;99.90
22996;DHT22;11664;49.774;8.650;2023-01-13T08:47:04;8.40;99.90
22996;DHT22;11664;49.774;8.650;2023-01-13T08:51:56;8.40;99.90
22996;DHT22;11664;49.774;8.650;2023-01-13T08:54:21;8.40;99.90
22996;DHT22;11664;49.774;8.650;2023-01-13T08:56:47;8.40;99.90
22996;DHT22;11664;49.774;8.650;2023-01-13T08:59:17;8.40;99.90
22996;DHT22;11664;49.774;8.650;2023-01-13T09:01:44;8.40;99.90
22996;DHT22;11664;49.774;8.650;2023-01-13T09:04:18;8.40;99.90
22996;DHT22;11664;49.774;8.650;2023-01-13T09:09:10;8.40;99.90
22996;DHT22;11664;49.774;8.650;2023-01-13T09:11:42;8.50;99.90
22996;DHT22;11664;49.774;8.650;2023-01-13T09:14:30;8.50;99.90
22996;DHT22;11664;49.774;8.650;2023-01-13T09:16:57;8.50;99.90
22996;DHT22;11664;49.774;8.650;2023-01-13T09:21:49;8.60;99.90
22996;DHT22;11664;49.774;8.650;2023-01-13T09:24:14;8.60;99.90
22996;DHT22;11664;49.774;8.650;2023-01-13T09:26:40;8.70;99.90
22996;DHT22;11664;49.774;8.650;2023-01-13T09:31:31;8.80;99.90
22996;DHT22;11664;49.774;8.650;2023-01-13T09:34:01;8.80;99.90
22996;DHT22;11664;49.774;8.650;2023-01-13T09:36:45;8.90;99.90
22996;DHT22;11664;49.774;8.650;2023-01-13T09:39:10;9.10;99.90
22996;DHT22;11664;49.774;8.650;2023-01-13T09:41:41;9.20;99.90
22996;DHT22;11664;49.774;8.650;2023-01-13T09:47:31;9.30;99.90
22996;DHT22;11664;49.774;8.650;2023-01-13T09:52:40;9.30;99.90
22996;DHT22;11664;49.774;8.650;2023-01-13T09:55:13;9.40;99.90
22996;DHT22;11664;49.774;8.650;2023-01-13T09:57:40;9.40;99.90
22996;DHT22;11664;49.774;8.650;2023-01-13T10:00:28;9.40;99.90
22996;DHT22;11664;49.774;8.650;2023-01-13T10:08:28;9.60;99.90
22996;DHT22;11664;49.774;8.650;2023-01-13T10:10:59;9.60;99.90
22996;DHT22;11664;49.774;8.650;2023-01-13T10:16:54;9.60;99.90
22996;DHT22;11664;49.774;8.650;2023-01-13T10:22:29;9.50;99.90
22996;DHT22;11664;49.774;8.650;2023-01-13T10:25:18;9.50;99.90
22996;DHT22;11664;49.774;8.650;2023-01-13T10:27:50;9.50;99.90
22996;DHT22;11664;49.774;8.650;2023-01-13T10:38:15;9.50;99.90
22996;DHT22;11664;49.774;8.650;2023-01-13T10:40:58;9.50;99.90
22996;DHT22;11664;49.774;8.650;2023-01-13T10:45:59;9.50;99.90
22996;DHT22;11664;49.774;8.650;2023-01-13T10:48:40;9.70;99.90
22996;DHT22;11664;49.774;8.650;2023-01-13T10:51:22;9.70;99.90
22996;DHT22;11664;49.774;8.650;2023-01-13T10:53:51;9.80;99.90
22996;DHT22;11664;49.774;8.650;2023-01-13T10:58:45;9.80;99.90
22996;DHT22;11664;49.774;8.650;2023-01-13T11:01:37;9.80;99.90
22996;DHT22;11664;49.774;8.650;2023-01-13T11:04:23;9.80;99.90
22996;DHT22;11664;49.774;8.650;2023-01-13T11:09:19;10.10;99.90
22996;DHT22;11664;49.774;8.650;2023-01-13T11:11:45;10.10;99.90
22996;DHT22;11664;49.774;8.650;2023-01-13T11:17:02;10.30;99.90
22996;DHT22;11664;49.774;8.650;2023-01-13T11:22:05;10.50;99.90
22996;DHT22;11664;49.774;8.650;2023-01-13T11:24:49;10.60;99.90
22996;DHT22;11664;49.774;8.650;2023-01-13T11:27:37;10.40;99.90
22996;DHT22;11664;49.774;8.650;2023-01-13T12:24:04;10.20;99.90
22996;DHT22;11664;49.774;8.650;2023-01-13T12:37:34;9.90;99.90
22996;DHT22;11664;49.774;8.650;2023-01-13T12:42:09;10.30;99.90
22996;DHT22;11664;49.774;8.650;2023-01-13T12:45:27;10.40;99.90
22996;DHT22;11664;49.774;8.650;2023-01-13T12:55:22;10.40;99.90
22996;DHT22;11664;49.774;8.650;2023-01-13T12:58:07;10.50;99.90
22996;DHT22;11664;49.774;8.650;2023-01-13T13:06:02;10.60;99.90
22996;DHT22;11664;49.774;8.650;2023-01-13T13:08:56;10.80;99.90
22996;DHT22;11664;49.774;8.650;2023-01-13T13:14:58;10.80;99.90
22996;DHT22;11664;49.774;8.650;2023-01-13T13:27:54;11.00;99.90
22996;DHT22;11664;49.774;8.650;2023-01-13T13:54:50;10.60;99.90
22996;DHT22;11664;49.774;8.650;2023-01-13T14:02:30;10.50;99.90
22996;DHT22;11664;49.774;8.650;2023-01-13T14:07:44;10.20;99.90
22996;DHT22;11664;49.774;8.650;2023-01-13T14:18:18;10.20;99.90
22996;DHT22;11664;49.774;8.650;2023-01-13T14:23:26;10.50;99.90
22996;DHT22;11664;49.774;8.650;2023-01-13T14:28:33;10.30;99.90
22996;DHT22;11664;49.774;8.650;2023-01-13T14:30:59;10.10;99.90
22996;DHT22;11664;49.774;8.650;2023-01-13T14:33:55;9.90;99.90
22996;DHT22;11664;49.774;8.650;2023-01-13T14:41:36;9.60;99.90
22996;DHT22;11664;49.774;8.650;2023-01-13T14:46:46;9.50;99.90
22996;DHT22;11664;49.774;8.650;2023-01-13T15:15:38;9.40;99.90
22996;DHT22;11664;49.774;8.650;2023-01-13T15:18:13;9.40;99.90
22996;DHT22;11664;49.774;8.650;2023-01-13T15:20:39;9.40;99.90
22996;DHT22;11664;49.774;8.650;2023-01-13T15:23:05;9.40;99.90
22996;DHT22;11664;49.774;8.650;2023-01-13T15:30:26;9.30;99.90
22996;DHT22;11664;49.774;8.650;2023-01-13T15:32:53;9.30;99.90
22996;DHT22;11664;49.774;8.650;2023-01-13T15:37:49;9.20;99.90
22996;DHT22;11664;49.774;8.650;2023-01-13T15:40:20;9.20;99.90
22996;DHT22;11664;49.774;8.650;2023-01-13T15:48:19;9.10;99.90
22996;DHT22;11664;49.774;8.650;2023-01-13T15:50:44;9.10;99.90
22996;DHT22;11664;49.774;8.650;2023-01-13T15:55:38;9.00;99.90
22996;DHT22;11664;49.774;8.650;2023-01-13T15:58:04;9.00;99.90
22996;DHT22;11664;49.774;8.650;2023-01-13T16:07:48;8.90;99.90
22996;DHT22;11664;49.774;8.650;2023-01-13T16:12:47;8.90;99.90
22996;DHT22;11664;49.774;8.650;2023-01-13T16:15:14;8.90;99.90
22996;DHT22;11664;49.774;8.650;2023-01-13T16:17:42;8.90;99.90
22996;DHT22;11664;49.774;8.650;2023-01-13T16:20:15;8.90;99.90
22996;DHT22;11664;49.774;8.650;2023-01-13T16:22:41;9.00;99.90
22996;DHT22;11664;49.774;8.650;2023-01-13T16:27:39;9.00;99.90
22996;DHT22;11664;49.774;8.650;2023-01-13T16:32:31;9.10;99.90
22996;DHT22;11664;49.774;8.650;2023-01-13T16:34:57;9.10;99.90
22996;DHT22;11664;49.774;8.650;2023-01-13T16:37:25;9.10;99.90
22996;DHT22;11664;49.774;8.650;2023-01-13T16:44:43;9.10;99.90
22996;DHT22;11664;49.774;8.650;2023-01-13T16:52:06;9.00;99.90
22996;DHT22;11664;49.774;8.650;2023-01-13T16:54:32;8.90;99.90
22996;DHT22;11664;49.774;8.650;2023-01-13T16:59:24;8.80;99.90
22996;DHT22;11664;49.774;8.650;2023-01-13T17:04:18;8.60;99.90
22996;DHT22;11664;49.774;8.650;2023-01-13T17:07:05;8.60;99.90
22996;DHT22;11664;49.774;8.650;2023-01-13T17:11:57;8.60;99.90
22996;DHT22;11664;49.774;8.650;2023-01-13T17:14:23;8.50;99.90
22996;DHT22;11664;49.774;8.650;2023-01-13T17:19:16;8.50;99.90
22996;DHT22;11664;49.774;8.650;2023-01-13T17:21:42;8.50;99.90
22996;DHT22;11664;49.774;8.650;2023-01-13T17:31:52;8.40;99.90
22996;DHT22;11664;49.774;8.650;2023-01-13T17:34:19;8.40;99.90
22996;DHT22;11664;49.774;8.650;2023-01-13T17:36:45;8.40;99.90
22996;DHT22;11664;49.774;8.650;2023-01-13T17:39:20;8.50;99.90
22996;DHT22;11664;49.774;8.650;2023-01-13T17:41:46;8.50;99.90
22996;DHT22;11664;49.774;8.650;2023-01-13T17:44:13;8.40;99.90
22996;DHT22;11664;49.774;8.650;2023-01-13T17:46:39;8.50;99.90
22996;DHT22;11664;49.774;8.650;2023-01-13T17:49:08;8.50;99.90
22996;DHT22;11664;49.774;8.650;2023-01-13T17:51:34;8.50;99.90
22996;DHT22;11664;49.774;8.650;2023-01-13T17:53:59;8.50;99.90
22996;DHT22;11664;49.774;8.650;2023-01-13T17:56:25;8.50;99.90
22996;DHT22;11664;49.774;8.650;2023-01-13T17:58:50;8.50;99.90
22996;DHT22;11664;49.774;8.650;2023-01-13T18:01:18;8.50;99.90
22996;DHT22;11664;49.774;8.650;2023-01-13T18:03:44;8.50;99.90
22996;DHT22;11664;49.774;8.650;2023-01-13T18:06:21;8.60;99.90
22996;DHT22;11664;49.774;8.650;2023-01-13T18:08:48;8.60;99.90
22996;DHT22;11664;49.774;8.650;2023-01-13T18:11:16;8.60;99.90
22996;DHT22;11664;49.774;8.650;2023-01-13T18:13:50;8.60;99.90
22996;DHT22;11664;49.774;8.650;2023-01-13T18:16:19;8.60;99.90
22996;DHT22;11664;49.774;8.650;2023-01-13T18:18:47;8.60;99.90
22996;DHT22;11664;49.774;8.650;2023-01-13T18:27:02;8.60;99.90
22996;DHT22;11664;49.774;8.650;2023-01-13T18:29:46;8.50;99.90
22996;DHT22;11664;49.774;8.650;2023-01-13T18:32:13;8.50;99.90
22996;DHT22;11664;49.774;8.650;2023-01-13T18:34:39;8.50;99.90
22996;DHT22;11664;49.774;8.650;2023-01-13T18:37:06;8.50;99.90
22996;DHT22;11664;49.774;8.650;2023-01-13T18:39:33;8.50;99.90
22996;DHT22;11664;49.774;8.650;2023-01-13T18:41:58;8.50;99.90
22996;DHT22;11664;49.774;8.650;2023-01-13T18:44:42;8.50;99.90
22996;DHT22;11664;49.774;8.650;2023-01-13T18:47:08;8.40;99.90
22996;DHT22;11664;49.774;8.650;2023-01-13T18:49:34;8.40;99.90
22996;DHT22;11664;49.774;8.650;2023-01-13T18:51:59;8.40;99.90
22996;DHT22;11664;49.774;8.650;2023-01-13T18:54:25;8.30;99.90
22996;DHT22;11664;49.774;8.650;2023-01-13T18:56:50;8.30;99.90
22996;DHT22;11664;49.774;8.650;2023-01-13T18:59:16;8.20;99.90
22996;DHT22;11664;49.774;8.650;2023-01-13T19:01:42;8.20;99.90
22996;DHT22;11664;49.774;8.650;2023-01-13T19:04:14;8.20;99.90
22996;DHT22;11664;49.774;8.650;2023-01-13T19:06:42;8.20;99.90
22996;DHT22;11664;49.774;8.650;2023-01-13T19:09:19;8.20;99.90
22996;DHT22;11664;49.774;8.650;2023-01-13T19:11:47;8.20;99.90
22996;DHT22;11664;49.774;8.650;2023-01-13T19:14:13;8.20;99.90
22996;DHT22;11664;49.774;8.650;2023-01-13T19:16:59;8.30;99.90
22996;DHT22;11664;49.774;8.650;2023-01-13T19:19:25;8.30;99.90
22996;DHT22;11664;49.774;8.650;2023-01-13T19:21:50;8.30;99.90
22996;DHT22;11664;49.774;8.650;2023-01-13T19:24:16;8.30;99.90
22996;DHT22;11664;49.774;8.650;2023-01-13T19:26:42;8.30;99.90
22996;DHT22;11664;49.774;8.650;2023-01-13T19:29:07;8.30;99.90
22996;DHT22;11664;49.774;8.650;2023-01-13T19:31:33;8.20;99.90
22996;DHT22;11664;49.774;8.650;2023-01-13T19:33:58;8.20;99.90
22996;DHT22;11664;49.774;8.650;2023-01-13T19:36:24;8.30;99.90
22996;DHT22;11664;49.774;8.650;2023-01-13T19:38:51;8.30;99.90
22996;DHT22;11664;49.774;8.650;2023-01-13T19:41:17;8.30;99.90
22996;DHT22;11664;49.774;8.650;2023-01-13T19:44:01;8.30;99.90
22996;DHT22;11664;49.774;8.650;2023-01-13T19:46:45;8.30;99.90
22996;DHT22;11664;49.774;8.650;2023-01-13T19:49:10;8.30;99.90
22996;DHT22;11664;49.774;8.650;2023-01-13T19:51:36;8.30;99.90
22996;DHT22;11664;49.774;8.650;2023-01-13T19:54:01;8.30;99.90
22996;DHT22;11664;49.774;8.650;2023-01-13T19:56:27;8.30;99.90
22996;DHT22;11664;49.774;8.650;2023-01-13T19:58:53;8.30;99.90
22996;DHT22;11664;49.774;8.650;2023-01-13T20:01:19;8.30;99.90
22996;DHT22;11664;49.774;8.650;2023-01-13T20:03:45;8.30;99.90
22996;DHT22;11664;49.774;8.650;2023-01-13T20:06:11;8.20;99.90
22996;DHT22;11664;49.774;8.650;2023-01-13T20:08:38;8.20;99.90
22996;DHT22;11664;49.774;8.650;2023-01-13T20:11:04;8.20;99.90
22996;DHT22;11664;49.774;8.650;2023-01-13T20:13:48;8.20;99.90
22996;DHT22;11664;49.774;8.650;2023-01-13T20:16:14;8.20;99.90
22996;DHT22;11664;49.774;8.650;2023-01-13T20:18:39;8.20;99.90
22996;DHT22;11664;49.774;8.650;2023-01-13T20:21:06;8.20;99.90
22996;DHT22;11664;49.774;8.650;2023-01-13T20:25:58;8.20;99.90
22996;DHT22;11664;49.774;8.650;2023-01-13T20:28:24;8.20;99.90
22996;DHT22;11664;49.774;8.650;2023-01-13T20:30:50;8.20;99.90
22996;DHT22;11664;49.774;8.650;2023-01-13T20:33:15;8.10;99.90
22996;DHT22;11664;49.774;8.650;2023-01-13T20:35:41;8.10;99.90
22996;DHT22;11664;49.774;8.650;2023-01-13T20:38:09;8.10;99.90
22996;DHT22;11664;49.774;8.650;2023-01-13T20:40:34;8.20;99.90
22996;DHT22;11664;49.774;8.650;2023-01-13T20:43:00;8.20;99.90
22996;DHT22;11664;49.774;8.650;2023-01-13T20:45:25;8.20;99.90
22996;DHT22;11664;49.774;8.650;2023-01-13T20:47:52;8.20;99.90
22996;DHT22;11664;49.774;8.650;2023-01-13T20:50:18;8.20;99.90
22996;DHT22;11664;49.774;8.650;2023-01-13T20:52:44;8.20;99.90
22996;DHT22;11664;49.774;8.650;2023-01-13T20:57:36;8.20;99.90
22996;DHT22;11664;49.774;8.650;2023-01-13T21:00:03;8.20;99.90
22996;DHT22;11664;49.774;8.650;2023-01-13T21:02:29;8.20;99.90
22996;DHT22;11664;49.774;8.650;2023-01-13T21:04:55;8.30;99.90
22996;DHT22;11664;49.774;8.650;2023-01-13T21:07:20;8.30;99.90
22996;DHT22;11664;49.774;8.650;2023-01-13T21:09:46;8.20;99.90
22996;DHT22;11664;49.774;8.650;2023-01-13T21:12:15;8.30;99.90
22996;DHT22;11664;49.774;8.650;2023-01-13T21:14:59;8.30;99.90
22996;DHT22;11664;49.774;8.650;2023-01-13T21:17:45;8.30;99.90
22996;DHT22;11664;49.774;8.650;2023-01-13T21:20:29;8.30;99.90
22996;DHT22;11664;49.774;8.650;2023-01-13T21:22:57;8.40;99.90
22996;DHT22;11664;49.774;8.650;2023-01-13T21:25:22;8.40;99.90
22996;DHT22;11664;49.774;8.650;2023-01-13T21:27:48;8.40;99.90
22996;DHT22;11664;49.774;8.650;2023-01-13T21:30:14;8.40;99.90
22996;DHT22;11664;49.774;8.650;2023-01-13T21:32:42;8.30;99.90
22996;DHT22;11664;49.774;8.650;2023-01-13T21:35:08;8.30;99.90
22996;DHT22;11664;49.774;8.650;2023-01-13T21:37:36;8.30;99.90
22996;DHT22;11664;49.774;8.650;2023-01-13T21:40:03;8.30;99.90
22996;DHT22;11664;49.774;8.650;2023-01-13T21:42:28;8.30;99.90
22996;DHT22;11664;49.774;8.650;2023-01-13T21:45:12;8.30;99.90
22996;DHT22;11664;49.774;8.650;2023-01-13T21:50:27;8.30;99.90
22996;DHT22;11664;49.774;8.650;2023-01-13T21:55:21;8.30;99.90
22996;DHT22;11664;49.774;8.650;2023-01-13T21:58:07;8.30;99.90
22996;DHT22;11664;49.774;8.650;2023-01-13T22:00:34;8.30;99.90
22996;DHT22;11664;49.774;8.650;2023-01-13T22:03:04;8.30;99.90
22996;DHT22;11664;49.774;8.650;2023-01-13T22:05:30;8.30;99.90
22996;DHT22;11664;49.774;8.650;2023-01-13T22:07:56;8.20;99.90
22996;DHT22;11664;49.774;8.650;2023-01-13T22:10:24;8.20;99.90
22996;DHT22;11664;49.774;8.650;2023-01-13T22:12:55;8.20;99.90
22996;DHT22;11664;49.774;8.650;2023-01-13T22:17:52;8.20;99.90
22996;DHT22;11664;49.774;8.650;2023-01-13T22:20:18;8.20;99.90
22996;DHT22;11664;49.774;8.650;2023-01-13T22:22:44;8.20;99.90
22996;DHT22;11664;49.774;8.650;2023-01-13T22:27:37;8.20;99.90
22996;DHT22;11664;49.774;8.650;2023-01-13T22:35:04;8.10;99.90
22996;DHT22;11664;49.774;8.650;2023-01-13T22:37:30;8.10;99.90
22996;DHT22;11664;49.774;8.650;2023-01-13T22:39:55;8.10;99.90
22996;DHT22;11664;49.774;8.650;2023-01-13T22:42:21;8.10;99.90
22996;DHT22;11664;49.774;8.650;2023-01-13T22:44:46;8.20;99.90
22996;DHT22;11664;49.774;8.650;2023-01-13T22:47:12;8.10;99.90
22996;DHT22;11664;49.774;8.650;2023-01-13T22:49:37;8.10;99.90
22996;DHT22;11664;49.774;8.650;2023-01-13T22:52:03;8.20;99.90
22996;DHT22;11664;49.774;8.650;2023-01-13T22:54:28;8.20;99.90
22996;DHT22;11664;49.774;8.650;2023-01-13T22:56:54;8.20;99.90
22996;DHT22;11664;49.774;8.650;2023-01-13T22:59:19;8.20;99.90
22996;DHT22;11664;49.774;8.650;2023-01-13T23:01:46;8.20;99.90
22996;DHT22;11664;49.774;8.650;2023-01-13T23:04:11;8.20;99.90
22996;DHT22;11664;49.774;8.650;2023-01-13T23:06:38;8.20;99.90
22996;DHT22;11664;49.774;8.650;2023-01-13T23:09:04;8.20;99.90
22996;DHT22;11664;49.774;8.650;2023-01-13T23:13:58;8.20;99.90
22996;DHT22;11664;49.774;8.650;2023-01-13T23:16:24;8.20;99.90
22996;DHT22;11664;49.774;8.650;2023-01-13T23:21:18;8.10;99.90
22996;DHT22;11664;49.774;8.650;2023-01-13T23:23:45;8.20;99.90
22996;DHT22;11664;49.774;8.650;2023-01-13T23:26:11;8.20;99.90
22996;DHT22;11664;49.774;8.650;2023-01-13T23:31:11;8.10;99.90
22996;DHT22;11664;49.774;8.650;2023-01-13T23:33:37;8.10;99.90
22996;DHT22;11664;49.774;8.650;2023-01-13T23:36:06;8.10;99.90
22996;DHT22;11664;49.774;8.650;2023-01-13T23:38:32;8.10;99.90
22996;DHT22;11664;49.774;8.650;2023-01-13T23:40:58;8.10;99.90
22996;DHT22;11664;49.774;8.650;2023-01-13T23:43:25;8.10;99.90
22996;DHT22;11664;49.774;8.650;2023-01-13T23:45:52;8.10;99.90
22996;DHT22;11664;49.774;8.650;2023-01-13T23:48:18;8.10;99.90
22996;DHT22;11664;49.774;8.650;2023-01-13T23:50:44;8.10;99.90
22996;DHT22;11664;49.774;8.650;2023-01-13T23:53:20;8.10;99.90
22996;DHT22;11664;49.774;8.650;2023-01-13T23:55:45;8.10;99.90
22996;DHT22;11664;49.774;8.650;2023-01-13T23:58:11;8.10;99.90
